createdAt,value
2022-11-14T00:00:30.681Z,32.80
2022-11-14T00:03:02.566Z,29.63
2022-11-14T00:05:32.516Z,30.87
2022-11-14T00:08:02.164Z,29.70
2022-11-14T00:10:31.631Z,27.50
2022-11-14T00:13:02.443Z,26.30
2022-11-14T00:15:32.163Z,27.73
2022-11-14T00:18:03.390Z,28.33
2022-11-14T00:20:34.238Z,26.03
2022-11-14T00:23:03.756Z,26.30
2022-11-14T00:25:33.744Z,27.73
2022-11-14T00:28:04.665Z,25.37
2022-11-14T00:30:34.269Z,25.03
2022-11-14T00:33:03.530Z,25.17
2022-11-14T00:35:32.610Z,23.10
2022-11-14T00:38:02.086Z,23.83
2022-11-14T00:40:31.710Z,21.90
2022-11-14T00:43:04.690Z,23.07
2022-11-14T00:45:35.796Z,22.10
2022-11-14T00:48:05.341Z,24.23
2022-11-14T00:50:34.868Z,22.53
2022-11-14T00:53:08.467Z,22.40
2022-11-14T00:55:38.354Z,23.60
2022-11-14T00:58:08.060Z,22.80
2022-11-14T01:00:39.389Z,22.57
2022-11-14T01:03:09.112Z,26.47
2022-11-14T01:05:43.490Z,22.07
2022-11-14T01:08:13.142Z,20.63
2022-11-14T01:10:43.241Z,22.63
2022-11-14T01:13:13.051Z,21.70
2022-11-14T01:15:45.402Z,25.23
2022-11-14T01:18:16.427Z,22.83
2022-11-14T01:20:47.311Z,20.90
2022-11-14T01:23:18.180Z,22.57
2022-11-14T01:25:47.728Z,22.13
2022-11-14T01:28:19.380Z,22.87
2022-11-14T01:30:50.561Z,23.47
2022-11-14T01:33:22.599Z,23.17
2022-11-14T01:35:52.020Z,22.73
2022-11-14T01:38:21.828Z,21.87
2022-11-14T01:40:51.443Z,23.33
2022-11-14T01:43:30.427Z,26.00
2022-11-14T01:46:03.592Z,27.53
2022-11-14T01:48:37.968Z,26.70
2022-11-14T01:51:19.072Z,24.70
2022-11-14T01:53:50.072Z,23.83
2022-11-14T01:56:22.886Z,24.00
2022-11-14T01:58:57.758Z,26.80
2022-11-14T02:01:29.230Z,25.20
2022-11-14T02:03:59.873Z,24.00
2022-11-14T02:06:31.805Z,22.00
2022-11-14T02:09:03.731Z,25.33
2022-11-14T02:11:36.470Z,23.50
2022-11-14T02:14:06.626Z,25.03
2022-11-14T02:16:38.063Z,22.13
2022-11-14T02:19:08.074Z,20.73
2022-11-14T02:21:39.168Z,22.73
2022-11-14T02:24:11.250Z,22.50
2022-11-14T02:26:40.935Z,22.43
2022-11-14T02:29:11.821Z,23.07
2022-11-14T02:31:41.256Z,22.80
2022-11-14T02:34:11.218Z,22.77
2022-11-14T02:36:42.510Z,22.53
2022-11-14T02:39:12.728Z,19.80
2022-11-14T02:41:42.394Z,22.33
2022-11-14T02:44:12.024Z,20.97
2022-11-14T02:46:41.780Z,22.17
2022-11-14T02:49:11.724Z,21.40
2022-11-14T02:51:42.895Z,21.67
2022-11-14T02:54:12.549Z,19.83
2022-11-14T02:56:43.898Z,21.40
2022-11-14T02:59:13.988Z,17.93
2022-11-14T03:01:43.581Z,19.73
2022-11-14T03:04:13.308Z,19.03
2022-11-14T03:06:47.007Z,20.33
2022-11-14T03:09:16.667Z,17.90
2022-11-14T03:11:46.127Z,18.53
2022-11-14T03:14:15.612Z,18.70
2022-11-14T03:16:47.859Z,16.73
2022-11-14T03:19:17.039Z,17.93
2022-11-14T03:21:48.127Z,18.07
2022-11-14T03:24:17.601Z,19.07
2022-11-14T03:26:47.552Z,17.70
2022-11-14T03:29:17.140Z,17.07
2022-11-14T03:31:46.779Z,17.23
2022-11-14T03:34:16.284Z,19.60
2022-11-14T03:36:47.840Z,18.53
2022-11-14T03:39:17.653Z,19.57
2022-11-14T03:41:47.045Z,16.90
2022-11-14T03:44:19.122Z,20.27
2022-11-14T03:46:48.559Z,18.93
2022-11-14T03:49:18.071Z,17.10
2022-11-14T03:51:49.401Z,17.53
2022-11-14T03:54:19.053Z,18.20
2022-11-14T03:56:48.591Z,17.30
2022-11-14T03:59:18.232Z,18.87
2022-11-14T04:01:49.035Z,17.23
2022-11-14T04:04:18.674Z,16.67
2022-11-14T04:06:49.608Z,18.10
2022-11-14T04:09:19.381Z,16.17
2022-11-14T04:11:48.923Z,15.23
2022-11-14T04:14:18.589Z,17.93
2022-11-14T04:16:48.235Z,20.33
2022-11-14T04:19:23.507Z,17.63
2022-11-14T04:21:54.928Z,17.20
2022-11-14T04:25:41.243Z,15.73
2022-11-14T04:28:18.583Z,17.17
2022-11-14T04:30:48.683Z,17.20
2022-11-14T04:33:18.085Z,22.80
2022-11-14T04:35:47.347Z,15.77
2022-11-14T04:38:17.926Z,18.80
2022-11-14T04:40:51.427Z,17.30
2022-11-14T04:43:21.394Z,15.30
2022-11-14T04:45:50.739Z,14.50
2022-11-14T04:48:23.708Z,15.23
2022-11-14T04:50:53.443Z,15.30
2022-11-14T04:53:24.371Z,15.67
2022-11-14T04:55:54.289Z,16.20
2022-11-14T04:58:23.789Z,15.97
2022-11-14T05:00:53.554Z,18.10
2022-11-14T05:03:23.278Z,16.23
2022-11-14T05:05:52.892Z,16.80
2022-11-14T05:08:24.624Z,15.73
2022-11-14T05:10:56.958Z,16.87
2022-11-14T05:13:26.644Z,18.70
2022-11-14T05:15:59.467Z,18.17
2022-11-14T05:18:29.680Z,17.93
2022-11-14T05:21:00.616Z,18.10
2022-11-14T05:23:31.589Z,18.70
2022-11-14T05:26:02.886Z,19.97
2022-11-14T05:28:32.766Z,21.20
2022-11-14T05:31:06.157Z,21.30
2022-11-14T05:33:36.079Z,20.53
2022-11-14T05:36:06.536Z,22.70
2022-11-14T05:38:37.502Z,23.73
2022-11-14T05:41:08.239Z,21.87
2022-11-14T05:43:38.370Z,21.70
2022-11-14T05:46:10.699Z,21.30
2022-11-14T05:48:40.514Z,22.47
2022-11-14T05:51:11.971Z,22.80
2022-11-14T05:53:43.663Z,23.50
2022-11-14T05:56:14.690Z,21.83
2022-11-14T05:58:44.275Z,18.73
2022-11-14T06:01:14.784Z,16.70
2022-11-14T06:03:45.814Z,17.27
2022-11-14T06:06:17.169Z,18.37
2022-11-14T06:08:48.563Z,17.47
2022-11-14T06:11:19.987Z,15.70
2022-11-14T06:13:49.830Z,16.63
2022-11-14T06:16:21.016Z,16.33
2022-11-14T06:18:50.567Z,17.23
2022-11-14T06:21:22.222Z,16.27
2022-11-14T06:23:53.499Z,18.73
2022-11-14T06:26:24.623Z,17.73
2022-11-14T06:28:54.801Z,18.80
2022-11-14T06:31:25.309Z,18.93
2022-11-14T06:33:55.169Z,19.60
2022-11-14T06:36:25.038Z,22.37
2022-11-14T06:38:56.021Z,21.00
2022-11-14T06:41:25.964Z,23.43
2022-11-14T06:43:55.478Z,21.20
2022-11-14T06:46:25.574Z,21.13
2022-11-14T06:48:55.182Z,17.77
2022-11-14T06:51:24.595Z,20.43
2022-11-14T06:53:55.578Z,19.53
2022-11-14T06:56:25.401Z,17.40
2022-11-14T06:58:55.996Z,20.10
2022-11-14T07:01:27.244Z,18.13
2022-11-14T07:03:58.854Z,19.77
2022-11-14T07:06:30.078Z,22.87
2022-11-14T07:09:01.146Z,21.87
2022-11-14T07:11:32.235Z,23.27
2022-11-14T07:14:02.991Z,24.47
2022-11-14T07:16:35.087Z,22.90
2022-11-14T07:19:06.835Z,22.30
2022-11-14T07:21:36.742Z,25.93
2022-11-14T07:24:08.946Z,25.30
2022-11-14T07:26:38.781Z,24.30
2022-11-14T07:29:08.561Z,24.23
2022-11-14T07:31:38.063Z,26.13
2022-11-14T07:34:07.967Z,27.47
2022-11-14T07:36:37.418Z,27.67
2022-11-14T07:39:08.414Z,24.13
2022-11-14T07:41:38.031Z,27.47
2022-11-14T07:44:07.432Z,27.47
2022-11-14T07:46:36.947Z,27.27
2022-11-14T07:49:06.590Z,27.43
2022-11-14T07:51:36.111Z,28.40
2022-11-14T07:54:05.684Z,29.17
2022-11-14T07:56:36.820Z,28.03
2022-11-14T07:59:06.613Z,28.60
2022-11-14T08:01:36.444Z,29.90
2022-11-14T08:04:08.007Z,28.80
2022-11-14T08:06:37.929Z,25.93
2022-11-14T08:09:08.583Z,26.73
2022-11-14T08:11:52.088Z,26.53
2022-11-14T08:14:21.565Z,24.90
2022-11-14T08:17:01.840Z,22.57
2022-11-14T08:19:31.287Z,24.10
2022-11-14T08:22:00.859Z,24.33
2022-11-14T08:24:30.230Z,23.53
2022-11-14T08:27:03.630Z,23.33
2022-11-14T08:29:33.246Z,25.87
2022-11-14T08:32:02.718Z,25.83
2022-11-14T08:34:32.248Z,26.53
2022-11-14T08:37:02.904Z,28.60
2022-11-14T08:39:32.881Z,27.30
2022-11-14T08:42:04.076Z,27.90
2022-11-14T08:44:34.275Z,25.97
2022-11-14T08:47:04.079Z,26.87
2022-11-14T08:49:33.431Z,24.93
2022-11-14T08:52:02.706Z,28.07
2022-11-14T08:54:34.221Z,30.30
2022-11-14T08:57:06.660Z,27.70
2022-11-14T08:59:36.293Z,27.40
2022-11-14T09:02:05.896Z,29.53
2022-11-14T09:04:35.327Z,26.03
2022-11-14T09:07:05.177Z,28.80
2022-11-14T09:09:34.547Z,30.50
2022-11-14T09:12:06.271Z,29.87
2022-11-14T09:14:38.348Z,32.07
2022-11-14T09:17:07.632Z,30.40
2022-11-14T09:19:37.398Z,30.47
2022-11-14T09:22:06.717Z,28.03
2022-11-14T09:24:37.117Z,30.03
2022-11-14T09:27:08.306Z,29.17
2022-11-14T09:29:37.889Z,27.37
2022-11-14T09:32:09.643Z,30.10
2022-11-14T09:34:43.037Z,27.87
2022-11-14T09:37:12.594Z,26.30
2022-11-14T09:39:41.899Z,29.13
2022-11-14T09:42:24.351Z,29.90
2022-11-14T09:44:59.805Z,29.63
2022-11-14T09:47:32.190Z,28.50
2022-11-14T09:50:07.339Z,30.00
2022-11-14T09:52:39.288Z,31.17
2022-11-14T09:55:13.682Z,30.00
2022-11-14T09:57:47.160Z,32.43
2022-11-14T10:00:19.056Z,30.00
2022-11-14T10:03:11.094Z,31.17
2022-11-14T10:06:09.337Z,31.47
2022-11-14T10:08:49.544Z,29.67
2022-11-14T10:11:23.724Z,28.57
2022-11-14T10:14:29.111Z,30.60
2022-11-14T10:17:10.691Z,27.40
2022-11-14T10:19:43.981Z,27.37
2022-11-14T10:22:23.278Z,28.83
2022-11-14T10:25:09.102Z,30.10
2022-11-14T10:27:43.865Z,29.87
2022-11-14T10:30:16.788Z,30.83
2022-11-14T10:33:04.642Z,30.27
2022-11-14T10:35:37.914Z,29.60
2022-11-14T10:38:13.760Z,28.43
2022-11-14T10:40:44.668Z,27.87
2022-11-14T10:43:20.672Z,30.03
2022-11-14T10:45:54.047Z,33.27
2022-11-14T10:48:32.207Z,30.23
2022-11-14T10:51:04.725Z,29.10
2022-11-14T10:53:43.196Z,28.37
2022-11-14T10:56:14.853Z,28.63
2022-11-14T10:58:49.070Z,27.00
2022-11-14T11:01:38.595Z,28.23
2022-11-14T11:04:22.977Z,28.93
2022-11-14T11:06:53.853Z,26.97
2022-11-14T11:09:45.911Z,28.37
2022-11-14T11:12:19.333Z,25.93
2022-11-14T11:14:50.476Z,25.00
2022-11-14T11:17:29.591Z,24.07
2022-11-14T11:20:26.570Z,22.07
2022-11-14T11:23:05.320Z,26.07
2022-11-14T11:25:36.004Z,24.20
2022-11-14T11:28:12.918Z,22.40
2022-11-14T11:30:42.910Z,25.03
2022-11-14T11:33:25.255Z,25.13
2022-11-14T11:35:58.092Z,26.13
2022-11-14T11:38:30.700Z,26.40
2022-11-14T11:41:15.528Z,27.00
2022-11-14T11:43:58.854Z,21.43
2022-11-14T11:46:36.287Z,23.03
2022-11-14T11:49:13.416Z,21.60
2022-11-14T11:51:44.359Z,20.77
2022-11-14T11:54:17.361Z,23.70
2022-11-14T11:56:49.061Z,20.10
2022-11-14T11:59:28.971Z,21.03
2022-11-14T12:01:58.304Z,21.83
2022-11-14T12:04:29.442Z,21.67
2022-11-14T12:07:05.876Z,20.67
2022-11-14T12:10:08.615Z,21.27
2022-11-14T12:12:39.834Z,21.00
2022-11-14T12:15:19.324Z,23.30
2022-11-14T12:18:13.931Z,23.73
2022-11-14T12:20:53.247Z,25.60
2022-11-14T12:23:45.787Z,22.20
2022-11-14T12:26:30.391Z,28.23
2022-11-14T12:29:14.023Z,22.07
2022-11-14T12:31:43.701Z,24.23
2022-11-14T12:34:20.806Z,24.57
2022-11-14T12:36:51.969Z,20.43
2022-11-14T12:39:27.107Z,23.13
2022-11-14T12:42:04.748Z,20.23
2022-11-14T12:44:36.896Z,19.67
2022-11-14T12:47:20.902Z,21.90
2022-11-14T12:50:06.540Z,20.27
2022-11-14T12:52:51.288Z,20.23
2022-11-14T12:55:55.884Z,20.07
2022-11-14T12:58:32.042Z,22.70
2022-11-14T13:01:12.635Z,23.10
2022-11-14T13:03:52.068Z,19.70
2022-11-14T13:06:25.149Z,23.07
2022-11-14T13:09:30.436Z,22.93
2022-11-14T13:12:18.654Z,23.63
2022-11-14T13:15:09.703Z,24.27
2022-11-14T13:17:56.722Z,21.53
2022-11-14T13:20:49.399Z,21.57
2022-11-14T13:23:51.698Z,22.53
2022-11-14T13:26:42.680Z,23.93
2022-11-14T13:30:00.311Z,21.77
2022-11-14T13:33:10.910Z,23.00
2022-11-14T13:36:05.096Z,22.30
2022-11-14T13:38:54.793Z,26.37
2022-11-14T13:41:47.499Z,24.53
2022-11-14T13:44:48.655Z,24.37
2022-11-14T13:47:36.575Z,25.40
2022-11-14T13:50:09.400Z,25.60
2022-11-14T13:52:43.864Z,26.13
2022-11-14T13:55:22.572Z,27.07
2022-11-14T13:58:05.989Z,26.87
2022-11-14T14:00:52.435Z,23.60
2022-11-14T14:03:30.488Z,22.60
2022-11-14T14:06:22.823Z,22.53
2022-11-14T14:09:11.650Z,23.07
2022-11-14T14:11:59.780Z,22.90
2022-11-14T14:14:40.055Z,25.43
2022-11-14T14:17:13.166Z,25.63
2022-11-14T14:19:53.308Z,28.07
2022-11-14T14:22:30.015Z,25.83
2022-11-14T14:25:04.891Z,24.43
2022-11-14T14:27:40.883Z,26.20
2022-11-14T14:30:12.458Z,23.23
2022-11-14T14:32:41.819Z,25.07
2022-11-14T14:35:24.942Z,25.07
2022-11-14T14:37:57.035Z,23.70
2022-11-14T14:40:28.511Z,22.73
2022-11-14T14:42:58.592Z,23.60
2022-11-14T14:45:29.630Z,24.60
2022-11-14T14:48:04.250Z,26.87
2022-11-14T14:50:38.331Z,29.87
2022-11-14T14:53:09.774Z,28.17
2022-11-14T14:55:39.104Z,27.10
2022-11-14T14:58:25.016Z,26.83
2022-11-14T15:00:56.101Z,35.43
2022-11-14T15:03:25.852Z,27.57
2022-11-14T15:06:03.021Z,35.63
2022-11-14T15:08:37.570Z,33.70
2022-11-14T15:11:08.400Z,36.90
2022-11-14T15:13:39.340Z,40.83
2022-11-14T15:16:10.289Z,38.40
2022-11-14T15:18:40.270Z,36.00
2022-11-14T15:21:18.230Z,34.77
2022-11-14T15:23:48.904Z,36.93
2022-11-14T15:26:20.218Z,37.43
2022-11-14T15:28:50.815Z,38.37
2022-11-14T15:31:21.544Z,47.00
2022-11-14T15:34:03.937Z,39.33
2022-11-14T15:36:33.359Z,37.50
2022-11-14T15:39:22.715Z,46.60
2022-11-14T15:41:52.053Z,42.50
2022-11-14T15:44:33.476Z,43.10
2022-11-14T15:47:03.955Z,47.20
2022-11-14T15:49:34.085Z,47.07
2022-11-14T15:52:05.759Z,48.27
2022-11-14T15:54:39.531Z,44.40
2022-11-14T15:57:14.546Z,50.50
2022-11-14T15:59:44.266Z,42.10
2022-11-14T16:02:16.537Z,47.90
2022-11-14T16:04:47.966Z,44.60
2022-11-14T16:07:19.126Z,46.30
2022-11-14T16:09:50.530Z,44.33
2022-11-14T16:12:20.427Z,42.93
2022-11-14T16:14:50.235Z,48.03
2022-11-14T16:17:23.373Z,48.70
2022-11-14T16:19:52.704Z,44.00
2022-11-14T16:22:22.018Z,46.07
2022-11-14T16:24:55.475Z,44.03
2022-11-14T16:27:24.792Z,45.50
2022-11-14T16:29:54.173Z,47.13
2022-11-14T16:32:26.818Z,47.87
2022-11-14T16:34:57.021Z,44.27
2022-11-14T16:37:26.365Z,58.97
2022-11-14T16:39:57.361Z,49.33
2022-11-14T16:42:26.869Z,48.97
2022-11-14T16:45:02.221Z,49.37
2022-11-14T16:47:33.108Z,45.10
2022-11-14T16:50:02.832Z,50.33
2022-11-14T16:52:32.449Z,47.07
2022-11-14T16:55:03.802Z,46.90
2022-11-14T16:57:33.241Z,46.57
2022-11-14T17:00:03.061Z,46.60
2022-11-14T17:02:35.070Z,50.40
2022-11-14T17:05:04.852Z,46.97
2022-11-14T17:07:34.314Z,47.43
2022-11-14T17:10:05.675Z,52.43
2022-11-14T17:12:35.580Z,55.73
2022-11-14T17:15:05.674Z,51.30
2022-11-14T17:17:35.606Z,49.53
2022-11-14T17:20:07.459Z,51.40
2022-11-14T17:22:37.563Z,65.00
2022-11-14T17:25:09.662Z,59.23
2022-11-14T17:27:39.153Z,52.77
2022-11-14T17:30:11.214Z,47.60
2022-11-14T17:32:40.728Z,49.53
2022-11-14T17:35:11.204Z,47.90
2022-11-14T17:37:40.725Z,55.07
2022-11-14T17:40:15.684Z,45.90
2022-11-14T17:42:45.575Z,52.90
2022-11-14T17:45:14.965Z,44.53
2022-11-14T17:47:44.692Z,51.53
2022-11-14T17:50:14.223Z,49.47
2022-11-14T17:52:43.761Z,50.50
2022-11-14T17:55:14.862Z,48.80
2022-11-14T17:57:46.853Z,47.07
2022-11-14T18:00:17.660Z,59.57
2022-11-14T18:02:47.828Z,49.53
2022-11-14T18:05:25.352Z,56.17
2022-11-14T18:07:57.210Z,51.73
2022-11-14T18:10:28.101Z,48.47
2022-11-14T18:12:57.483Z,51.63
2022-11-14T18:15:28.343Z,51.93
2022-11-14T18:17:59.400Z,57.70
2022-11-14T18:20:29.247Z,56.10
2022-11-14T18:22:58.756Z,56.03
2022-11-14T18:25:31.557Z,52.17
2022-11-14T18:28:01.159Z,58.00
2022-11-14T18:30:46.018Z,53.60
2022-11-14T18:33:15.554Z,52.13
2022-11-14T18:35:45.329Z,53.50
2022-11-14T18:38:15.518Z,57.47
2022-11-14T18:40:47.053Z,54.03
2022-11-14T18:43:18.028Z,59.67
2022-11-14T18:45:47.810Z,49.60
2022-11-14T18:48:17.612Z,56.00
2022-11-14T18:50:51.423Z,57.37
2022-11-14T18:53:21.980Z,56.40
2022-11-14T18:55:53.780Z,51.67
2022-11-14T18:58:23.452Z,55.83
2022-11-14T19:00:52.487Z,56.47
2022-11-14T19:03:22.115Z,60.53
2022-11-14T19:05:51.683Z,59.63
2022-11-14T19:08:21.036Z,54.03
2022-11-14T19:10:54.160Z,58.00
2022-11-14T19:13:26.121Z,56.27
2022-11-14T19:15:56.014Z,57.97
2022-11-14T19:18:26.871Z,62.40
2022-11-14T19:21:00.730Z,62.90
2022-11-14T19:23:31.492Z,56.67
2022-11-14T19:26:04.074Z,61.23
2022-11-14T19:28:34.572Z,60.80
2022-11-14T19:31:04.401Z,58.00
2022-11-14T19:37:00.025Z,62.27
2022-11-14T19:39:33.003Z,62.90
2022-11-14T19:42:03.806Z,53.50
2022-11-14T19:44:33.277Z,61.63
2022-11-14T19:47:04.066Z,57.10
2022-11-14T19:49:33.782Z,63.93
2022-11-14T19:52:03.837Z,58.40
2022-11-14T19:54:34.808Z,59.07
2022-11-14T19:57:06.098Z,60.53
2022-11-14T19:59:35.843Z,54.20
2022-11-14T20:02:05.502Z,58.27
2022-11-14T20:04:38.007Z,56.87
2022-11-14T20:07:08.498Z,59.10
2022-11-14T20:09:39.236Z,59.93
2022-11-14T20:12:10.426Z,60.47
2022-11-14T20:14:40.509Z,57.27
2022-11-14T20:17:10.835Z,55.07
2022-11-14T20:19:43.558Z,51.17
2022-11-14T20:22:13.235Z,52.97
2022-11-14T20:24:44.086Z,52.33
2022-11-14T20:27:15.876Z,58.50
2022-11-14T20:29:47.295Z,54.27
2022-11-14T20:32:17.005Z,60.30
2022-11-14T20:34:46.647Z,54.23
2022-11-14T20:37:17.864Z,61.90
2022-11-14T20:39:47.154Z,59.23
2022-11-14T20:42:18.451Z,59.23
2022-11-14T20:44:48.354Z,59.97
2022-11-14T20:47:18.596Z,56.63
2022-11-14T20:49:48.106Z,54.50
2022-11-14T20:52:18.792Z,56.27
2022-11-14T20:54:48.384Z,64.50
2022-11-14T20:57:20.144Z,59.60
2022-11-14T20:59:50.176Z,66.57
2022-11-14T21:02:20.881Z,59.87
2022-11-14T21:04:51.665Z,68.37
2022-11-14T21:07:23.613Z,61.60
2022-11-14T21:10:14.454Z,58.40
2022-11-14T21:13:06.393Z,66.27
2022-11-14T21:15:36.686Z,60.83
2022-11-14T21:18:06.786Z,63.07
2022-11-14T21:20:36.557Z,61.23
2022-11-14T21:23:05.863Z,58.00
2022-11-14T21:25:35.630Z,57.30
2022-11-14T21:28:24.483Z,59.43
2022-11-14T21:30:58.783Z,61.17
2022-11-14T21:33:30.169Z,60.47
2022-11-14T21:36:16.562Z,56.50
2022-11-14T21:38:53.055Z,59.40
2022-11-14T21:41:24.061Z,54.23
2022-11-14T21:43:57.126Z,55.83
2022-11-14T21:46:27.013Z,62.73
2022-11-14T21:48:57.439Z,56.10
2022-11-14T21:51:29.637Z,66.07
2022-11-14T21:54:00.012Z,63.83
2022-11-14T21:56:31.145Z,59.50
2022-11-14T21:59:15.872Z,62.13
2022-11-14T22:02:10.148Z,63.87
2022-11-14T22:04:40.468Z,59.87
2022-11-14T22:07:10.602Z,60.43
2022-11-14T22:09:45.085Z,54.87
2022-11-14T22:12:14.895Z,56.40
2022-11-14T22:14:46.618Z,65.00
2022-11-14T22:17:16.029Z,60.00
2022-11-14T22:19:45.935Z,66.47
2022-11-14T22:22:15.210Z,61.43
2022-11-14T22:24:45.364Z,61.77
2022-11-14T22:27:15.020Z,66.03
2022-11-14T22:29:45.930Z,69.10
2022-11-14T22:32:15.613Z,63.40
2022-11-14T22:34:45.123Z,68.03
2022-11-14T22:37:14.459Z,65.23
2022-11-14T22:39:43.964Z,61.73
2022-11-14T22:42:13.841Z,59.73
2022-11-14T22:44:43.139Z,68.00
2022-11-14T22:47:14.219Z,60.63
2022-11-14T22:49:44.157Z,62.20
2022-11-14T22:52:13.855Z,66.77
2022-11-14T22:54:43.383Z,65.97
2022-11-14T22:57:12.463Z,56.80
2022-11-14T22:59:42.062Z,61.33
2022-11-14T23:02:12.992Z,63.40
2022-11-14T23:04:42.581Z,60.70
2022-11-14T23:07:12.160Z,62.83
2022-11-14T23:09:43.713Z,64.97
2022-11-14T23:12:15.790Z,70.03
2022-11-14T23:14:45.569Z,65.80
2022-11-14T23:17:19.538Z,69.33
2022-11-14T23:19:49.100Z,66.33
2022-11-14T23:22:19.012Z,67.83
2022-11-14T23:24:50.275Z,69.23
2022-11-14T23:27:19.876Z,75.23
2022-11-14T23:29:50.501Z,69.87
2022-11-14T23:32:21.735Z,70.40
2022-11-14T23:34:51.231Z,71.77
2022-11-14T23:37:22.899Z,69.37
2022-11-14T23:39:52.507Z,69.13
2022-11-14T23:42:22.159Z,67.43
2022-11-14T23:44:51.662Z,65.80
2022-11-14T23:47:22.567Z,66.23
2022-11-14T23:49:52.250Z,65.60
2022-11-14T23:52:22.343Z,72.20
2022-11-14T23:54:51.758Z,68.43
2022-11-14T23:57:21.988Z,84.87
2022-11-14T23:59:52.321Z,67.73
